Time;durP1;ratioP1;P1;durP2;ratioP2;P2;SDS_P1;SDS_P2;PMS_P1;PMS_P2;Temp;Humidity;BMP_temperature;BMP_pressure;BME280_temperature;BME280_humidity;BME280_pressure;Samples;Min_cycle;Max_cycle;Signal;HPM_P1;HPM_P2
2023/09/09 00:01:01;;;;;;;2.05;0.40;;;15.40;99.90;;;;;;5089272;28;20596;-75
2023/09/09 00:03:32;;;;;;;1.35;0.40;;;15.50;99.90;;;;;;5092381;28;20670;-77
2023/09/09 00:06:11;;;;;;;2.08;0.40;;;15.70;99.90;;;;;;5094920;28;20193;-75
2023/09/09 00:08:43;;;;;;;1.65;0.60;;;15.80;99.90;;;;;;5092673;28;20184;-74
2023/09/09 00:11:13;;;;;;;0.82;0.43;;;15.80;99.90;;;;;;5095183;28;20202;-74
2023/09/09 00:13:47;;;;;;;1.80;0.40;;;16.00;99.90;;;;;;5095881;28;20193;-76
2023/09/09 00:16:17;;;;;;;2.17;0.60;;;16.10;99.90;;;;;;5095679;28;20594;-76
2023/09/09 00:18:48;;;;;;;1.05;0.35;;;16.10;99.90;;;;;;5089175;28;20228;-75
2023/09/09 00:21:20;;;;;;;0.60;0.40;;;16.10;99.90;;;;;;5087497;28;20905;-76
2023/09/09 00:23:51;;;;;;;1.02;0.30;;;16.10;99.90;;;;;;5075880;28;20556;-74
2023/09/09 00:26:22;;;;;;;1.95;0.50;;;16.10;99.90;;;;;;5075153;28;20567;-75
2023/09/09 00:28:54;;;;;;;0.63;0.30;;;16.20;99.90;;;;;;5094062;28;20196;-74
2023/09/09 00:31:25;;;;;;;1.73;0.50;;;16.40;99.90;;;;;;5092006;28;20189;-74
2023/09/09 00:33:57;;;;;;;2.15;0.45;;;16.50;99.90;;;;;;5078849;28;20214;-74
2023/09/09 00:36:27;;;;;;;1.92;0.45;;;16.60;99.90;;;;;;5094913;28;20189;-74
2023/09/09 00:38:59;;;;;;;0.50;0.35;;;16.70;99.90;;;;;;5095707;28;20198;-75
2023/09/09 00:41:30;;;;;;;1.55;0.40;;;16.90;99.90;;;;;;5092441;28;20258;-76
2023/09/09 00:44:03;;;;;;;1.13;0.30;;;16.90;99.90;;;;;;5075826;28;20192;-76
2023/09/09 00:46:34;;;;;;;1.98;0.50;;;16.90;99.90;;;;;;5090347;28;20200;-75
2023/09/09 00:49:05;;;;;;;1.95;0.60;;;17.00;99.90;;;;;;5078988;28;20184;-75
2023/09/09 00:51:37;;;;;;;2.42;0.40;;;17.20;99.90;;;;;;5095068;28;20330;-77
2023/09/09 00:54:08;;;;;;;1.02;0.40;;;17.30;99.90;;;;;;5095785;28;20198;-74
2023/09/09 00:56:39;;;;;;;0.88;0.40;;;17.20;99.90;;;;;;5083649;28;20540;-75
2023/09/09 00:59:12;;;;;;;2.45;0.47;;;17.10;99.90;;;;;;5094602;28;20192;-74
2023/09/09 01:01:43;;;;;;;3.47;0.47;;;17.20;99.90;;;;;;5093454;28;20273;-74
2023/09/09 01:04:14;;;;;;;2.08;0.40;;;17.20;99.90;;;;;;5087462;28;20196;-76
2023/09/09 01:06:46;;;;;;;1.33;0.40;;;17.30;99.90;;;;;;5094375;28;20292;-74
2023/09/09 01:09:17;;;;;;;1.00;0.50;;;17.40;99.90;;;;;;5093818;28;20648;-75
2023/09/09 01:11:48;;;;;;;1.23;0.40;;;17.50;99.90;;;;;;5093309;28;20192;-73
2023/09/09 01:14:21;;;;;;;1.73;0.50;;;17.60;99.90;;;;;;5093112;28;20204;-74
2023/09/09 01:16:52;;;;;;;1.15;0.40;;;17.70;99.90;;;;;;5090307;28;20195;-75
2023/09/09 01:19:27;;;;;;;2.35;0.30;;;17.80;99.90;;;;;;5080559;28;20188;-75
2023/09/09 01:22:02;;;;;;;2.28;0.55;;;17.90;99.90;;;;;;5078672;28;20217;-74
2023/09/09 01:24:35;;;;;;;1.90;0.40;;;17.90;99.90;;;;;;5082132;28;20200;-75
2023/09/09 01:27:06;;;;;;;1.08;0.40;;;18.00;99.90;;;;;;5086191;28;20283;-75
2023/09/09 01:29:37;;;;;;;2.40;0.60;;;18.10;99.90;;;;;;5094717;28;20201;-75
2023/09/09 01:32:08;;;;;;;3.38;0.68;;;18.30;99.90;;;;;;5094365;28;20189;-77
2023/09/09 01:34:38;;;;;;;2.03;0.50;;;18.40;99.90;;;;;;5091893;28;20196;-75
2023/09/09 01:37:09;;;;;;;2.13;0.40;;;18.40;99.90;;;;;;5089079;28;20192;-74
2023/09/09 01:39:42;;;;;;;0.95;0.43;;;18.40;99.90;;;;;;5077842;28;20186;-74
2023/09/09 01:42:13;;;;;;;0.90;0.50;;;18.40;99.90;;;;;;5092614;28;20219;-75
2023/09/09 01:44:45;;;;;;;2.08;0.50;;;18.40;99.90;;;;;;5087825;28;20199;-73
2023/09/09 01:47:16;;;;;;;2.25;0.60;;;18.40;99.90;;;;;;5093381;28;20663;-72
2023/09/09 01:49:46;;;;;;;2.67;0.50;;;18.40;99.90;;;;;;5094179;28;20549;-74
2023/09/09 01:52:17;;;;;;;1.95;0.80;;;18.50;99.90;;;;;;5093942;28;20584;-73
2023/09/09 01:54:50;;;;;;;1.63;0.60;;;18.60;99.90;;;;;;5093119;28;20199;-74
2023/09/09 01:57:22;;;;;;;1.50;0.40;;;18.70;99.90;;;;;;5087954;28;20193;-74
2023/09/09 01:59:52;;;;;;;1.42;0.57;;;18.80;99.90;;;;;;5080837;28;20192;-72
2023/09/09 02:02:23;;;;;;;1.15;0.40;;;18.80;99.90;;;;;;5087343;28;20569;-72
2023/09/09 02:04:54;;;;;;;2.47;0.40;;;18.80;99.10;;;;;;5074170;28;20235;-74
2023/09/09 02:07:24;;;;;;;1.67;0.40;;;18.80;99.40;;;;;;5075950;28;20652;-73
2023/09/09 02:09:57;;;;;;;2.28;0.45;;;18.90;99.30;;;;;;5093629;28;20189;-73
2023/09/09 02:12:29;;;;;;;3.42;0.68;;;18.60;98.70;;;;;;5087764;28;20188;-73
2023/09/09 02:15:00;;;;;;;1.45;0.50;;;18.80;99.60;;;;;;5073687;28;20532;-72
2023/09/09 02:17:31;;;;;;;1.92;0.55;;;18.90;99.30;;;;;;5080877;28;20208;-72
2023/09/09 02:20:02;;;;;;;2.42;0.60;;;19.00;98.70;;;;;;5093825;28;20192;-73
2023/09/09 02:22:33;;;;;;;3.50;0.50;;;19.10;98.90;;;;;;5085846;28;20241;-75
2023/09/09 02:25:07;;;;;;;0.63;0.40;;;19.20;98.90;;;;;;5093753;28;20578;-75
2023/09/09 02:27:38;;;;;;;1.77;0.65;;;19.10;98.80;;;;;;5093420;28;20185;-76
2023/09/09 02:30:09;;;;;;;1.63;0.50;;;19.20;98.30;;;;;;5078458;28;20193;-74
2023/09/09 02:32:40;;;;;;;0.60;0.40;;;19.20;98.70;;;;;;5092862;28;20253;-77
2023/09/09 02:35:13;;;;;;;1.98;0.60;;;19.00;98.00;;;;;;5073331;28;20190;-74
2023/09/09 02:37:44;;;;;;;3.90;0.68;;;19.00;98.10;;;;;;5092402;28;20276;-73
2023/09/09 02:40:17;;;;;;;2.03;0.50;;;19.20;98.70;;;;;;5093463;28;20188;-76
2023/09/09 02:42:47;;;;;;;4.97;0.80;;;19.30;98.10;;;;;;5082436;28;20212;-72
2023/09/09 02:45:18;;;;;;;2.97;0.50;;;19.40;96.80;;;;;;5083617;28;20529;-74
2023/09/09 02:47:49;;;;;;;2.50;0.60;;;19.30;95.20;;;;;;5073159;28;20611;-72
2023/09/09 02:50:20;;;;;;;1.05;0.40;;;19.30;95.10;;;;;;5080399;28;20200;-73
2023/09/09 02:52:52;;;;;;;1.27;0.32;;;19.30;96.00;;;;;;5091854;28;20231;-73
2023/09/09 02:55:25;;;;;;;1.60;0.40;;;19.30;95.30;;;;;;5092574;28;20194;-73
2023/09/09 02:57:56;;;;;;;0.82;0.40;;;19.30;95.30;;;;;;5093065;28;20199;-73
2023/09/09 03:00:26;;;;;;;1.48;0.43;;;19.40;95.60;;;;;;5093187;28;20199;-74
2023/09/09 03:02:57;;;;;;;2.85;0.40;;;19.40;95.90;;;;;;5092788;28;20219;-73
2023/09/09 03:05:28;;;;;;;1.58;0.47;;;19.40;95.80;;;;;;5087965;28;20188;-73
2023/09/09 03:08:01;;;;;;;2.13;0.50;;;19.30;95.90;;;;;;5092614;28;20196;-73
2023/09/09 03:10:34;;;;;;;1.05;0.35;;;19.40;95.00;;;;;;5091857;28;20192;-73
2023/09/09 03:13:04;;;;;;;0.90;0.40;;;19.40;94.70;;;;;;5092451;28;20275;-73
2023/09/09 03:15:35;;;;;;;1.25;0.35;;;19.30;95.00;;;;;;5091655;28;20614;-73
2023/09/09 03:18:06;;;;;;;4.28;0.70;;;19.20;95.10;;;;;;5083453;28;20213;-74
2023/09/09 03:20:37;;;;;;;1.80;0.40;;;19.10;94.90;;;;;;5073319;28;20629;-74
2023/09/09 03:23:08;;;;;;;2.47;0.68;;;18.90;93.90;;;;;;5092803;28;20211;-73
2023/09/09 03:25:42;;;;;;;3.20;0.50;;;19.00;94.70;;;;;;5092012;28;20196;-73
2023/09/09 03:28:13;;;;;;;2.17;0.40;;;19.20;95.60;;;;;;5081613;28;20198;-74
2023/09/09 03:30:57;;;;;;;1.98;0.55;;;19.30;95.90;;;;;;5092570;28;20185;-73
2023/09/09 03:33:30;;;;;;;1.90;0.57;;;19.30;95.80;;;;;;5092661;28;20188;-73
2023/09/09 03:36:01;;;;;;;1.17;0.50;;;19.40;96.10;;;;;;5092391;28;20192;-73
2023/09/09 03:38:33;;;;;;;1.08;0.50;;;19.40;96.00;;;;;;5092863;28;20196;-75
2023/09/09 03:41:07;;;;;;;2.90;0.60;;;19.40;99.10;;;;;;5091954;28;20193;-74
2023/09/09 03:43:38;;;;;;;0.85;0.60;;;19.20;99.90;;;;;;5087542;28;20211;-74
2023/09/09 03:46:09;;;;;;;2.40;0.52;;;18.90;99.90;;;;;;5092656;28;20567;-74
2023/09/09 03:48:40;;;;;;;1.80;0.70;;;18.90;99.90;;;;;;5092754;28;20197;-75
2023/09/09 03:51:11;;;;;;;1.48;0.60;;;18.80;99.90;;;;;;5091961;28;20588;-75
2023/09/09 03:53:41;;;;;;;3.35;1.00;;;18.80;99.90;;;;;;5092516;28;20297;-75
2023/09/09 03:56:14;;;;;;;1.33;0.32;;;18.80;99.90;;;;;;5092029;28;20189;-74
2023/09/09 03:58:45;;;;;;;2.38;0.50;;;18.70;99.90;;;;;;5092608;28;20204;-74
2023/09/09 04:01:16;;;;;;;1.77;0.50;;;18.60;99.90;;;;;;5092137;28;20180;-74
2023/09/09 04:03:47;;;;;;;2.35;0.82;;;18.50;99.90;;;;;;5090994;28;20208;-73
2023/09/09 04:06:19;;;;;;;1.38;0.50;;;18.40;99.90;;;;;;5092335;28;20271;-75
2023/09/09 04:08:55;;;;;;;2.15;0.63;;;18.30;99.90;;;;;;5095987;28;20193;-74
2023/09/09 04:11:28;;;;;;;1.20;0.60;;;18.20;99.90;;;;;;5095559;28;20188;-74
2023/09/09 04:13:59;;;;;;;3.05;0.60;;;18.20;99.90;;;;;;5095838;28;20226;-74
2023/09/09 04:16:30;;;;;;;1.67;0.60;;;18.10;99.90;;;;;;5095819;28;20220;-74
2023/09/09 04:19:00;;;;;;;1.63;0.50;;;18.10;99.90;;;;;;5095875;28;20196;-74
2023/09/09 04:21:31;;;;;;;2.85;0.65;;;18.10;99.90;;;;;;5082576;28;20212;-74
2023/09/09 04:24:02;;;;;;;2.85;1.27;;;18.00;99.90;;;;;;5081056;28;20184;-74
2023/09/09 04:26:35;;;;;;;1.63;0.75;;;18.00;99.90;;;;;;5096003;28;20283;-74
2023/09/09 04:29:05;;;;;;;1.33;0.50;;;18.10;99.90;;;;;;5095565;28;20557;-75
2023/09/09 04:31:39;;;;;;;1.65;0.70;;;18.20;99.90;;;;;;5090568;28;20628;-74
2023/09/09 04:34:10;;;;;;;3.35;0.60;;;18.20;99.90;;;;;;5087672;28;20200;-74
2023/09/09 04:36:41;;;;;;;3.05;0.60;;;18.20;99.90;;;;;;5082255;28;20242;-75
2023/09/09 04:39:13;;;;;;;2.45;0.60;;;18.10;99.90;;;;;;5082754;28;20669;-75
2023/09/09 04:41:46;;;;;;;2.88;0.82;;;17.90;99.90;;;;;;5081136;28;20197;-74
2023/09/09 04:44:17;;;;;;;2.67;0.60;;;17.90;99.90;;;;;;5081272;28;20197;-75
2023/09/09 04:46:48;;;;;;;1.70;0.60;;;17.90;99.90;;;;;;5084415;28;20275;-77
2023/09/09 04:49:19;;;;;;;1.23;0.60;;;17.80;99.90;;;;;;5087552;28;20220;-74
2023/09/09 04:51:50;;;;;;;1.33;0.70;;;17.80;99.90;;;;;;5087187;28;20228;-74
2023/09/09 04:54:21;;;;;;;0.98;0.50;;;17.80;99.90;;;;;;5087403;28;20188;-75
2023/09/09 04:56:54;;;;;;;2.67;0.60;;;17.60;99.90;;;;;;5082765;28;21617;-75
2023/09/09 04:59:25;;;;;;;2.78;0.70;;;17.60;99.90;;;;;;5081117;28;20189;-74
2023/09/09 05:01:58;;;;;;;2.55;0.68;;;17.50;99.90;;;;;;5094023;28;20196;-74
2023/09/09 05:04:29;;;;;;;2.30;0.60;;;17.50;99.90;;;;;;5094153;28;20184;-74
2023/09/09 05:07:00;;;;;;;2.30;0.60;;;17.50;99.90;;;;;;5094562;28;20565;-75
2023/09/09 05:09:31;;;;;;;2.03;0.60;;;17.50;99.90;;;;;;5089866;28;20193;-72
2023/09/09 05:12:04;;;;;;;1.63;0.60;;;17.40;99.90;;;;;;5087513;28;20534;-73
2023/09/09 05:14:35;;;;;;;1.83;0.50;;;17.40;99.90;;;;;;5095173;28;20190;-74
2023/09/09 05:17:06;;;;;;;0.93;0.55;;;17.40;99.90;;;;;;5093992;28;20220;-72
2023/09/09 05:19:37;;;;;;;6.18;0.73;;;17.30;99.90;;;;;;5094354;28;20189;-73
2023/09/09 05:22:07;;;;;;;1.15;0.60;;;17.30;99.90;;;;;;5094262;28;20192;-75
2023/09/09 05:24:38;;;;;;;2.15;0.70;;;17.20;99.90;;;;;;5094154;28;20185;-71
2023/09/09 05:27:11;;;;;;;3.35;0.50;;;17.20;99.90;;;;;;5094269;28;20552;-74
2023/09/09 05:29:43;;;;;;;2.42;0.60;;;17.20;99.90;;;;;;5094712;28;20606;-71
2023/09/09 05:32:13;;;;;;;3.15;0.70;;;17.20;99.90;;;;;;5093962;28;20267;-72
2023/09/09 05:34:44;;;;;;;1.73;0.60;;;17.20;99.90;;;;;;5093599;28;20192;-74
2023/09/09 05:37:15;;;;;;;3.28;0.70;;;17.10;99.90;;;;;;5089956;28;20189;-74
2023/09/09 05:39:46;;;;;;;3.13;0.70;;;17.10;99.90;;;;;;5093591;28;20200;-73
2023/09/09 05:42:18;;;;;;;1.83;0.40;;;17.10;99.90;;;;;;5091286;28;20188;-72
2023/09/09 05:44:49;;;;;;;2.53;0.52;;;17.10;99.90;;;;;;5093294;28;20192;-74
2023/09/09 05:47:20;;;;;;;1.65;0.57;;;17.10;99.90;;;;;;5093514;28;20192;-72
2023/09/09 05:49:51;;;;;;;2.55;0.55;;;17.00;99.90;;;;;;5093100;28;20660;-73
2023/09/09 05:52:21;;;;;;;4.03;0.52;;;17.00;99.90;;;;;;5092980;28;20730;-72
2023/09/09 05:54:52;;;;;;;2.13;0.57;;;17.00;99.90;;;;;;5093897;28;20200;-72
2023/09/09 05:57:25;;;;;;;1.33;0.50;;;16.90;99.90;;;;;;5093936;28;20279;-73
2023/09/09 05:59:56;;;;;;;1.98;0.50;;;16.80;99.90;;;;;;5092430;28;20191;-73
2023/09/09 06:02:27;;;;;;;2.45;0.47;;;16.80;99.90;;;;;;5092021;28;20208;-73
2023/09/09 06:04:57;;;;;;;2.97;0.60;;;16.80;99.90;;;;;;5093695;28;20271;-72
2023/09/09 06:07:28;;;;;;;1.35;0.40;;;16.80;99.90;;;;;;5094067;28;20264;-72
2023/09/09 06:09:59;;;;;;;0.82;0.50;;;16.70;99.90;;;;;;5092327;28;20199;-73
2023/09/09 06:12:34;;;;;;;3.90;0.60;;;16.70;99.90;;;;;;5093239;28;20192;-73
2023/09/09 06:15:05;;;;;;;2.47;0.68;;;16.60;99.90;;;;;;5093779;28;20192;-73
2023/09/09 06:17:39;;;;;;;1.58;0.70;;;16.60;99.90;;;;;;5092883;28;20222;-73
2023/09/09 06:20:12;;;;;;;5.32;0.82;;;16.50;99.90;;;;;;5091385;28;20196;-75
2023/09/09 06:22:43;;;;;;;1.40;0.43;;;16.50;99.90;;;;;;5090646;28;20294;-75
2023/09/09 06:25:14;;;;;;;2.72;0.60;;;16.40;99.90;;;;;;5092890;28;20192;-74
2023/09/09 06:27:46;;;;;;;5.90;0.88;;;16.40;99.90;;;;;;5091917;28;20192;-74
2023/09/09 06:30:17;;;;;;;4.57;0.60;;;16.50;99.90;;;;;;5083821;28;20202;-74
2023/09/09 06:32:48;;;;;;;2.13;0.45;;;16.50;99.90;;;;;;5093003;28;20200;-73
2023/09/09 06:35:19;;;;;;;1.35;0.60;;;16.40;99.90;;;;;;5085547;28;20197;-73
2023/09/09 06:37:49;;;;;;;1.80;0.55;;;16.40;99.90;;;;;;5087157;28;20192;-74
2023/09/09 06:40:20;;;;;;;1.27;0.60;;;16.40;99.90;;;;;;5093128;28;20219;-74
2023/09/09 06:42:53;;;;;;;3.75;0.80;;;16.30;99.90;;;;;;5093485;28;20600;-73
2023/09/09 06:45:25;;;;;;;2.65;0.60;;;16.30;99.90;;;;;;5093400;28;20196;-74
2023/09/09 06:47:55;;;;;;;2.10;0.57;;;16.30;99.90;;;;;;5093538;28;20195;-72
2023/09/09 06:50:26;;;;;;;1.42;0.60;;;16.20;99.90;;;;;;5092906;28;20185;-72
2023/09/09 06:52:57;;;;;;;4.75;0.82;;;16.10;99.90;;;;;;5093322;28;20236;-73
2023/09/09 06:55:28;;;;;;;1.52;0.50;;;16.10;99.90;;;;;;5087990;28;20203;-73
2023/09/09 06:58:01;;;;;;;1.63;0.60;;;16.10;99.90;;;;;;5092339;28;20284;-73
2023/09/09 07:00:32;;;;;;;0.95;0.50;;;16.10;99.90;;;;;;5089478;28;20204;-74
2023/09/09 07:03:03;;;;;;;3.80;0.60;;;16.00;99.90;;;;;;5093368;28;20216;-73
2023/09/09 07:05:35;;;;;;;0.90;0.60;;;16.00;99.90;;;;;;5078574;28;20193;-73
2023/09/09 07:08:06;;;;;;;1.73;0.63;;;15.90;99.90;;;;;;5073314;28;20690;-74
2023/09/09 07:10:37;;;;;;;1.83;0.55;;;15.80;99.90;;;;;;5073213;28;20275;-74
2023/09/09 07:13:09;;;;;;;2.78;0.70;;;15.80;99.90;;;;;;5072945;28;20559;-74
2023/09/09 07:15:40;;;;;;;2.20;0.90;;;15.80;99.90;;;;;;5074263;28;20225;-73
2023/09/09 07:18:11;;;;;;;2.03;0.90;;;15.70;99.90;;;;;;5087741;28;20192;-72
2023/09/09 07:20:42;;;;;;;3.72;0.93;;;15.70;99.90;;;;;;5093182;28;20192;-72
2023/09/09 07:23:13;;;;;;;2.30;0.65;;;15.60;99.90;;;;;;5093102;28;20220;-73
2023/09/09 07:25:44;;;;;;;2.30;0.52;;;15.60;99.90;;;;;;5093113;28;20203;-73
2023/09/09 07:28:17;;;;;;;1.58;0.63;;;15.50;99.90;;;;;;5093017;28;20188;-72
2023/09/09 07:30:47;;;;;;;2.42;0.77;;;15.50;99.90;;;;;;5087603;28;20191;-72
2023/09/09 07:33:18;;;;;;;2.28;0.98;;;15.40;99.90;;;;;;5090555;28;20192;-72
2023/09/09 07:35:52;;;;;;;3.78;0.70;;;15.40;99.90;;;;;;5092739;28;20192;-72
2023/09/09 07:38:23;;;;;;;2.67;0.90;;;15.30;99.90;;;;;;5092374;28;20203;-72
2023/09/09 07:40:58;;;;;;;2.05;0.70;;;15.30;99.90;;;;;;5088920;28;20196;-73
2023/09/09 07:43:31;;;;;;;1.85;0.65;;;15.20;99.90;;;;;;5095297;28;20691;-73
2023/09/09 07:46:02;;;;;;;4.18;1.23;;;15.20;99.90;;;;;;5096743;28;20935;-72
2023/09/09 07:48:32;;;;;;;3.15;0.90;;;15.10;99.90;;;;;;5096896;28;20203;-72
2023/09/09 07:51:03;;;;;;;1.40;0.70;;;15.00;99.90;;;;;;5080143;28;20193;-73
2023/09/09 07:53:34;;;;;;;3.78;0.90;;;15.00;99.90;;;;;;5094009;28;20227;-72
2023/09/09 07:56:05;;;;;;;2.47;0.90;;;15.00;99.90;;;;;;5094587;28;20192;-73
2023/09/09 07:58:37;;;;;;;1.38;0.60;;;14.90;99.90;;;;;;5079231;28;20195;-72
2023/09/09 08:01:13;;;;;;;2.55;1.02;;;14.90;99.90;;;;;;5096156;28;20215;-72
2023/09/09 08:03:43;;;;;;;3.75;1.23;;;14.80;99.90;;;;;;5096192;28;20294;-73
2023/09/09 08:06:16;;;;;;;2.65;1.00;;;14.80;99.90;;;;;;5096545;28;20561;-73
2023/09/09 08:08:47;;;;;;;3.22;1.00;;;14.80;99.90;;;;;;5096387;28;20197;-72
2023/09/09 08:11:18;;;;;;;2.45;0.93;;;14.70;99.90;;;;;;5095579;28;20231;-73
2023/09/09 08:13:50;;;;;;;2.03;1.00;;;14.60;99.90;;;;;;5093556;28;20204;-72
2023/09/09 08:16:21;;;;;;;2.72;1.05;;;14.60;99.90;;;;;;5087661;28;20226;-73
2023/09/09 08:18:52;;;;;;;2.05;0.80;;;14.60;99.90;;;;;;5080646;28;20203;-72
2023/09/09 08:21:24;;;;;;;3.28;1.10;;;14.60;99.90;;;;;;5096154;28;20636;-73
2023/09/09 08:23:55;;;;;;;1.65;0.85;;;14.60;99.90;;;;;;5091170;28;20216;-74
2023/09/09 08:26:26;;;;;;;3.10;1.15;;;14.50;99.90;;;;;;5076282;28;20197;-72
2023/09/09 08:28:59;;;;;;;3.97;1.00;;;14.40;99.90;;;;;;5094472;28;20207;-72
2023/09/09 08:31:30;;;;;;;4.25;1.50;;;14.40;99.90;;;;;;5095472;28;20196;-72
2023/09/09 08:34:01;;;;;;;3.17;1.40;;;14.30;99.90;;;;;;5095073;28;20683;-72
2023/09/09 08:36:31;;;;;;;3.95;1.45;;;14.30;99.90;;;;;;5089087;28;20199;-72
2023/09/09 08:39:02;;;;;;;3.35;1.50;;;14.20;99.90;;;;;;5095307;28;20711;-72
2023/09/09 08:41:46;;;;;;;3.03;1.30;;;14.10;99.90;;;;;;5095388;28;20283;-72
2023/09/09 08:44:29;;;;;;;2.13;1.38;;;14.10;99.90;;;;;;5094980;28;20207;-73
2023/09/09 08:46:59;;;;;;;3.60;1.75;;;14.10;99.90;;;;;;5089760;28;20202;-72
2023/09/09 08:49:33;;;;;;;3.08;1.40;;;14.00;99.90;;;;;;5087782;28;20200;-72
2023/09/09 08:52:09;;;;;;;4.72;1.80;;;14.00;99.90;;;;;;5090212;28;20588;-72
2023/09/09 08:54:40;;;;;;;3.15;1.67;;;14.00;99.90;;;;;;5086458;28;20188;-72
2023/09/09 08:57:11;;;;;;;5.50;1.77;;;13.90;99.90;;;;;;5093332;28;20200;-72
2023/09/09 08:59:44;;;;;;;4.15;1.98;;;13.90;99.90;;;;;;5095251;28;20550;-72
2023/09/09 09:02:15;;;;;;;3.75;1.77;;;13.80;99.90;;;;;;5094692;28;20196;-73
2023/09/09 09:04:47;;;;;;;3.85;1.70;;;13.80;99.90;;;;;;5085188;28;20212;-72
2023/09/09 09:07:18;;;;;;;2.47;1.60;;;13.70;99.90;;;;;;5094871;28;20200;-72
2023/09/09 09:09:49;;;;;;;4.72;1.88;;;13.70;99.90;;;;;;5094476;28;20560;-73
2023/09/09 09:12:20;;;;;;;3.08;1.70;;;13.70;99.90;;;;;;5089323;28;20553;-72
2023/09/09 09:14:53;;;;;;;4.47;2.05;;;13.70;99.90;;;;;;5094662;28;20227;-73
2023/09/09 09:17:24;;;;;;;5.22;1.98;;;13.70;99.90;;;;;;5095001;28;20196;-73
2023/09/09 09:19:55;;;;;;;4.25;2.00;;;13.70;99.90;;;;;;5094707;28;20257;-72
2023/09/09 09:22:27;;;;;;;5.40;2.10;;;13.80;99.90;;;;;;5093412;28;20199;-72
2023/09/09 09:24:58;;;;;;;6.20;2.60;;;13.80;99.90;;;;;;5089799;28;20576;-73
2023/09/09 09:27:32;;;;;;;5.15;2.83;;;13.90;99.90;;;;;;5089273;28;20195;-72
2023/09/09 09:30:08;;;;;;;5.75;2.50;;;13.90;99.90;;;;;;5094649;28;20211;-73
2023/09/09 09:32:44;;;;;;;5.47;2.58;;;14.00;99.90;;;;;;5088785;28;20283;-72
2023/09/09 09:35:26;;;;;;;6.82;2.35;;;14.10;99.90;;;;;;5094611;28;20199;-73
2023/09/09 09:37:59;;;;;;;6.20;2.50;;;14.10;99.90;;;;;;5094387;28;20660;-72
2023/09/09 09:40:30;;;;;;;5.45;2.60;;;14.00;99.90;;;;;;5081823;28;20203;-72
2023/09/09 09:43:01;;;;;;;7.85;2.53;;;14.00;99.90;;;;;;5094553;28;20227;-72
2023/09/09 09:45:34;;;;;;;7.13;2.85;;;14.00;99.90;;;;;;5094229;28;20584;-72
2023/09/09 09:48:05;;;;;;;5.43;2.30;;;14.00;99.90;;;;;;5094158;28;20193;-72
2023/09/09 09:50:37;;;;;;;4.47;2.13;;;13.90;99.90;;;;;;5088020;28;20195;-72
2023/09/09 09:53:09;;;;;;;4.63;2.03;;;13.80;99.90;;;;;;5094030;28;20315;-72
2023/09/09 09:55:40;;;;;;;3.78;1.90;;;13.80;99.90;;;;;;5093679;28;20257;-72
2023/09/09 09:58:17;;;;;;;3.72;1.95;;;13.80;99.90;;;;;;5094156;28;20291;-72
2023/09/09 10:00:50;;;;;;;4.95;2.10;;;13.80;99.90;;;;;;5093843;28;20215;-73
2023/09/09 10:03:25;;;;;;;4.47;1.85;;;13.70;99.90;;;;;;5094529;28;20200;-72
2023/09/09 10:05:57;;;;;;;4.25;2.10;;;13.70;99.90;;;;;;5092876;28;20191;-73
2023/09/09 10:08:35;;;;;;;4.25;2.08;;;13.70;99.90;;;;;;5085229;28;20201;-72
2023/09/09 10:11:06;;;;;;;3.95;1.60;;;13.70;99.90;;;;;;5092841;28;20210;-72
2023/09/09 10:13:41;;;;;;;5.35;1.77;;;13.70;99.90;;;;;;5093514;28;20559;-72
2023/09/09 10:16:16;;;;;;;3.50;1.60;;;13.70;99.90;;;;;;5081491;28;20568;-72
2023/09/09 10:18:49;;;;;;;5.80;1.77;;;13.70;99.90;;;;;;5093736;28;20271;-72
2023/09/09 10:21:21;;;;;;;3.83;1.60;;;13.70;99.90;;;;;;5085056;28;20207;-72
2023/09/09 10:23:52;;;;;;;4.53;1.45;;;13.70;99.90;;;;;;5091436;28;20208;-73
2023/09/09 10:26:24;;;;;;;4.07;1.50;;;13.70;99.90;;;;;;5085931;28;20542;-72
2023/09/09 10:28:56;;;;;;;3.38;1.23;;;13.60;99.90;;;;;;5089537;28;20208;-72
2023/09/09 10:31:30;;;;;;;2.78;1.33;;;13.60;99.90;;;;;;5086543;28;20693;-72
2023/09/09 10:34:03;;;;;;;3.53;1.30;;;13.50;99.90;;;;;;5090511;28;20204;-72
2023/09/09 10:36:37;;;;;;;4.95;1.42;;;13.50;99.90;;;;;;5089912;28;20196;-72
2023/09/09 10:39:10;;;;;;;4.93;1.55;;;13.40;99.90;;;;;;5093500;28;20200;-72
2023/09/09 10:41:42;;;;;;;4.68;1.23;;;13.40;99.90;;;;;;5093140;28;20199;-74
2023/09/09 10:44:15;;;;;;;4.60;1.42;;;13.30;99.90;;;;;;5093494;28;20213;-73
2023/09/09 10:46:48;;;;;;;5.13;1.40;;;13.30;99.90;;;;;;5092115;28;20199;-73
2023/09/09 10:49:19;;;;;;;4.10;1.50;;;13.20;99.90;;;;;;5092867;28;20200;-72
2023/09/09 10:51:51;;;;;;;3.72;1.63;;;13.20;99.90;;;;;;5093045;28;20228;-72
2023/09/09 10:54:22;;;;;;;4.68;1.52;;;13.20;99.90;;;;;;5089551;28;20670;-73
2023/09/09 10:56:53;;;;;;;5.05;1.60;;;13.10;99.90;;;;;;5092908;28;20192;-73
2023/09/09 10:59:25;;;;;;;2.60;1.30;;;13.00;99.90;;;;;;5092314;28;20199;-73
2023/09/09 11:02:18;;;;;;;3.88;1.48;;;13.00;99.90;;;;;;5093331;28;20283;-73
2023/09/09 11:05:01;;;;;;;5.70;1.70;;;13.00;99.90;;;;;;5093113;28;20679;-72
2023/09/09 11:07:42;;;;;;;4.05;1.58;;;12.90;99.90;;;;;;5089924;28;20204;-73
2023/09/09 11:10:17;;;;;;;4.35;1.48;;;12.90;99.90;;;;;;5084312;28;20201;-74
2023/09/09 11:12:54;;;;;;;3.80;1.30;;;12.90;99.90;;;;;;5087607;28;21364;-73
2023/09/09 11:15:28;;;;;;;5.65;1.42;;;12.80;99.90;;;;;;5089266;28;20251;-73
2023/09/09 11:18:00;;;;;;;3.33;1.40;;;12.80;99.90;;;;;;5097128;28;20632;-73
2023/09/09 11:20:31;;;;;;;3.13;1.10;;;12.80;99.90;;;;;;5096720;28;20194;-74
2023/09/09 11:23:03;;;;;;;4.40;1.33;;;12.70;99.90;;;;;;5096808;28;20204;-72
2023/09/09 11:25:34;;;;;;;2.65;1.10;;;12.70;99.90;;;;;;5096921;28;20218;-73
2023/09/09 11:28:05;;;;;;;2.63;1.05;;;12.70;99.90;;;;;;5096836;28;20200;-72
2023/09/09 11:30:44;;;;;;;2.78;1.08;;;12.70;99.90;;;;;;5095829;28;20707;-73
2023/09/09 11:33:25;;;;;;;3.75;1.10;;;12.70;99.90;;;;;;5096724;28;20200;-73
2023/09/09 11:35:55;;;;;;;2.55;1.30;;;12.70;99.90;;;;;;5097017;28;20202;-73
2023/09/09 11:38:26;;;;;;;3.63;1.27;;;12.60;99.90;;;;;;5096364;28;20195;-72
2023/09/09 11:41:00;;;;;;;3.78;0.98;;;12.60;99.90;;;;;;5096664;28;20206;-73
2023/09/09 11:43:31;;;;;;;3.42;1.23;;;12.60;99.90;;;;;;5096766;28;20196;-73
2023/09/09 11:46:02;;;;;;;1.80;1.00;;;12.60;99.90;;;;;;5096262;28;20220;-73
2023/09/09 11:48:35;;;;;;;3.15;1.10;;;12.50;99.90;;;;;;5083424;28;20192;-72
2023/09/09 11:51:06;;;;;;;4.43;1.40;;;12.50;99.90;;;;;;5095877;28;20202;-73
2023/09/09 11:53:36;;;;;;;4.28;1.38;;;12.50;99.90;;;;;;5096564;28;20199;-73
2023/09/09 11:56:07;;;;;;;3.97;1.10;;;12.50;99.90;;;;;;5082877;28;20653;-72
2023/09/09 11:58:42;;;;;;;2.83;1.20;;;12.40;99.90;;;;;;5082449;28;20187;-72
2023/09/09 12:01:13;;;;;;;3.60;1.13;;;12.30;99.90;;;;;;5096278;28;20192;-72
2023/09/09 12:03:45;;;;;;;4.80;1.23;;;12.30;99.90;;;;;;5096140;28;20180;-73
2023/09/09 12:06:17;;;;;;;1.67;1.02;;;12.30;99.90;;;;;;5096460;28;20220;-73
2023/09/09 12:08:48;;;;;;;3.42;1.35;;;12.20;99.90;;;;;;5088187;28;20213;-73
2023/09/09 12:11:20;;;;;;;3.00;1.25;;;12.20;99.90;;;;;;5082271;28;20286;-73
2023/09/09 12:13:51;;;;;;;3.13;1.27;;;12.20;99.90;;;;;;5096444;28;20235;-73
2023/09/09 12:16:22;;;;;;;3.03;1.40;;;12.20;99.90;;;;;;5095168;28;20189;-72
2023/09/09 12:18:58;;;;;;;4.40;1.30;;;12.10;99.90;;;;;;5096132;28;20640;-73
2023/09/09 12:21:29;;;;;;;3.63;1.10;;;12.10;99.90;;;;;;5089841;28;20187;-72
2023/09/09 12:24:04;;;;;;;2.40;1.15;;;12.00;99.90;;;;;;5076391;28;20315;-72
2023/09/09 12:26:34;;;;;;;5.07;1.27;;;12.00;99.90;;;;;;5075940;28;20254;-73
2023/09/09 12:29:09;;;;;;;2.38;1.27;;;12.00;99.90;;;;;;5087566;28;20204;-72
2023/09/09 12:31:54;;;;;;;4.35;1.13;;;12.00;99.90;;;;;;5095850;28;20305;-73
2023/09/09 12:34:28;;;;;;;3.38;1.10;;;12.00;99.90;;;;;;5095788;28;20189;-73
2023/09/09 12:37:02;;;;;;;2.78;1.08;;;12.00;99.90;;;;;;5096913;28;20711;-73
2023/09/09 12:39:33;;;;;;;1.50;0.95;;;12.00;99.90;;;;;;5095749;28;20589;-72
2023/09/09 12:42:05;;;;;;;3.28;1.02;;;12.00;99.90;;;;;;5095535;28;20644;-73
2023/09/09 12:44:48;;;;;;;3.42;1.00;;;12.00;99.90;;;;;;5095680;28;20219;-73
2023/09/09 12:47:24;;;;;;;2.80;0.80;;;12.00;99.90;;;;;;5081190;28;20196;-73
2023/09/09 12:49:56;;;;;;;2.22;0.70;;;12.00;99.90;;;;;;5095424;28;20192;-74
2023/09/09 12:52:34;;;;;;;3.03;0.90;;;11.90;99.90;;;;;;5095126;28;20228;-72
2023/09/09 12:55:05;;;;;;;1.92;0.73;;;11.90;99.90;;;;;;5093328;28;20211;-74
2023/09/09 12:57:36;;;;;;;3.70;0.82;;;11.90;99.90;;;;;;5094681;28;20200;-73
2023/09/09 13:00:08;;;;;;;3.00;0.80;;;11.90;99.90;;;;;;5095359;28;20553;-73
2023/09/09 13:02:38;;;;;;;2.58;0.95;;;11.90;99.90;;;;;;5095612;28;20204;-74
2023/09/09 13:05:12;;;;;;;3.10;0.77;;;11.90;99.90;;;;;;5095495;28;20216;-74
2023/09/09 13:07:44;;;;;;;3.55;0.80;;;11.90;99.90;;;;;;5094826;28;20535;-73
2023/09/09 13:10:15;;;;;;;3.10;0.90;;;11.90;99.90;;;;;;5095297;28;20189;-73
2023/09/09 13:12:49;;;;;;;2.65;0.70;;;11.90;99.90;;;;;;5096364;28;20241;-73